Wetterstation Vordersexau
Wetterdaten: Woche 17.06.13 - 23.06.13 (KW25)
Datum Zeit Temp. A. Feuchte A. Luftdruck Regen Wind Richtung Taupunkt Windchill Windben
17.06.2013 00:00 17,1 C 81 % 1011,7 hPa 0,0 l/m 0,0 km/h O-NO 13,8 C 17,1 C 0,0 km/h
17.06.2013 01:00 17,2 C 82 % 1011,4 hPa 0,0 l/m 0,0 km/h O-SO 14,1 C 17,2 C 0,0 km/h
17.06.2013 02:00 16,2 C 82 % 1011,6 hPa 0,0 l/m 0,0 km/h O-SO 13,1 C 16,2 C 0,0 km/h
17.06.2013 03:00 15,3 C 82 % 1011,1 hPa 0,0 l/m 0,0 km/h S-SO 12,2 C 15,3 C 0,0 km/h
17.06.2013 04:00 14,8 C 81 % 1011,3 hPa 0,0 l/m 0,0 km/h S-SO 11,6 C 14,8 C 0,0 km/h
17.06.2013 05:00 14,9 C 78 % 1010,6 hPa 0,0 l/m 0,0 km/h O-NO 11,1 C 14,9 C 0,0 km/h
17.06.2013 06:00 15,1 C 77 % 1011,1 hPa 0,0 l/m 0,0 km/h S-SO 11,1 C 15,1 C 0,0 km/h
17.06.2013 07:00 17,4 C 76 % 1011,2 hPa 0,0 l/m 0,0 km/h S 13,1 C 17,4 C 0,0 km/h
17.06.2013 08:00 26,8 C 63 % 1010,9 hPa 0,0 l/m 0,0 km/h N-NW 19,1 C 26,8 C 0,0 km/h
17.06.2013 09:00 29,9 C 51 % 1010,8 hPa 0,0 l/m 0,0 km/h SO 18,6 C 29,9 C 0,0 km/h
17.06.2013 10:00 30,9 C 51 % 1010,6 hPa 0,0 l/m 0,0 km/h NW 19,6 C 30,9 C 0,0 km/h
17.06.2013 11:00 31,8 C 47 % 1010,5 hPa 0,0 l/m 11,0 km/h O-NO 19,1 C 31,6 C 6,1 km/h
17.06.2013 12:00 31,1 C 50 % 1010,3 hPa 0,0 l/m 0,0 km/h N-NO 19,4 C 31,1 C 0,0 km/h
17.06.2013 13:00 31,6 C 50 % 1010,0 hPa 0,0 l/m 0,0 km/h SO 19,9 C 31,6 C 0,0 km/h
17.06.2013 14:00 33,0 C 46 % 1009,7 hPa 0,0 l/m 0,0 km/h W-SW 19,8 C 33,0 C 0,0 km/h
17.06.2013 15:00 35,4 C 44 % 1009,4 hPa 0,0 l/m 1,9 km/h SW 21,2 C 35,4 C 1,1 km/h
17.06.2013 16:00 41,0 C 35 % 1008,8 hPa 0,0 l/m 0,0 km/h N-NO 22,4 C 41,0 C 0,0 km/h
17.06.2013 17:00 42,6 C 30 % 1008,1 hPa 0,0 l/m 0,0 km/h NO 21,3 C 42,6 C 0,0 km/h
17.06.2013 18:00 44,2 C 27 % 1008,0 hPa 0,0 l/m 0,0 km/h SO 20,9 C 44,2 C 0,0 km/h
17.06.2013 19:00 38,3 C 40 % 1008,2 hPa 0,0 l/m 0,0 km/h O-SO 22,3 C 38,3 C 0,0 km/h
17.06.2013 20:00 29,4 C 53 % 1008,7 hPa 0,0 l/m 0,0 km/h S-SO 18,8 C 29,4 C 0,0 km/h
17.06.2013 21:00 25,4 C 63 % 1009,3 hPa 0,0 l/m 0,0 km/h O 17,8 C 25,4 C 0,0 km/h
17.06.2013 22:00 22,4 C 71 % 1010,3 hPa 0,0 l/m 0,0 km/h NO 16,9 C 22,4 C 0,0 km/h
17.06.2013 23:00 21,3 C 75 % 1010,8 hPa 0,0 l/m 0,0 km/h S 16,7 C 21,3 C 0,0 km/h
18.06.2013 00:00 21,8 C 77 % 1012,6 hPa 0,0 l/m 0,0 km/h S 17,6 C 21,8 C 0,0 km/h
18.06.2013 01:00 21,1 C 77 % 1012,7 hPa 0,0 l/m 0,0 km/h O-NO 16,9 C 21,1 C 0,0 km/h
18.06.2013 02:00 21,4 C 74 % 1012,6 hPa 0,0 l/m 0,0 km/h O-SO 16,6 C 21,4 C 0,0 km/h
18.06.2013 03:00 20,9 C 76 % 1013,5 hPa 0,0 l/m 0,0 km/h S 16,5 C 20,9 C 0,0 km/h
18.06.2013 04:00 21,2 C 72 % 1012,0 hPa 0,0 l/m 24,6 km/h S 15,9 C 17,1 C 13,7 km/h
18.06.2013 05:00 19,7 C 77 % 1012,0 hPa 0,0 l/m 3,9 km/h W 15,5 C 19,7 C 2,2 km/h
18.06.2013 06:00 18,8 C 80 % 1013,1 hPa 0,0 l/m 0,0 km/h O-SO 15,3 C 18,8 C 0,0 km/h
18.06.2013 07:00 20,4 C 79 % 1012,5 hPa 0,0 l/m 0,0 km/h N 16,6 C 20,4 C 0,0 km/h
18.06.2013 08:00 26,0 C 65 % 1013,0 hPa 0,0 l/m 7,8 km/h S 18,9 C 25,7 C 4,3 km/h
18.06.2013 09:00 31,6 C 53 % 1013,1 hPa 0,0 l/m 0,0 km/h NW 20,8 C 31,6 C 0,0 km/h
18.06.2013 10:00 34,1 C 46 % 1012,8 hPa 0,0 l/m 3,2 km/h NW 20,8 C 34,1 C 1,8 km/h
18.06.2013 11:00 34,9 C 44 % 1012,2 hPa 0,0 l/m 3,2 km/h N-NW 20,8 C 34,9 C 1,8 km/h
18.06.2013 12:00 33,3 C 46 % 1011,9 hPa 0,0 l/m 13,6 km/h NW 20,1 C 33,3 C 7,6 km/h
18.06.2013 13:00 33,8 C 47 % 1011,4 hPa 0,0 l/m 11,7 km/h N-NW 20,9 C 33,8 C 6,5 km/h
18.06.2013 14:00 36,1 C 44 % 1010,9 hPa 0,0 l/m 1,3 km/h NO 21,9 C 36,1 C 0,7 km/h
18.06.2013 15:00 37,8 C 38 % 1010,4 hPa 0,0 l/m 12,3 km/h O-NO 21,0 C 37,8 C 6,8 km/h
18.06.2013 16:00 39,9 C 32 % 1010,1 hPa 0,0 l/m 11,0 km/h N 20,0 C 39,9 C 6,1 km/h
18.06.2013 17:00 42,4 C 30 % 1009,6 hPa 0,0 l/m 11,0 km/h NW 21,1 C 42,4 C 6,1 km/h
18.06.2013 18:00 38,1 C 38 % 1009,4 hPa 0,0 l/m 17,5 km/h NW 21,2 C 38,1 C 9,7 km/h
18.06.2013 19:00 35,4 C 47 % 1009,4 hPa 0,0 l/m 0,0 km/h S 22,3 C 35,4 C 0,0 km/h
18.06.2013 20:00 29,9 C 63 % 1009,4 hPa 0,0 l/m 1,9 km/h O-SO 22,1 C 29,9 C 1,1 km/h
18.06.2013 21:00 26,6 C 68 % 1010,0 hPa 0,0 l/m 0,0 km/h O-NO 20,2 C 26,6 C 0,0 km/h
18.06.2013 22:00 24,3 C 76 % 1010,3 hPa 0,0 l/m 0,0 km/h O-NO 19,8 C 24,3 C 0,0 km/h
18.06.2013 23:00 24,9 C 67 % 1010,0 hPa 0,0 l/m 0,0 km/h SO 18,3 C 24,9 C 0,0 km/h
19.06.2013 00:00 21,2 C 77 % 1009,9 hPa 0,0 l/m 0,0 km/h O-NO 17,0 C 21,2 C 0,0 km/h
19.06.2013 01:00 19,8 C 79 % 1010,2 hPa 0,0 l/m 0,0 km/h SO 16,0 C 19,8 C 0,0 km/h
19.06.2013 02:00 19,4 C 75 % 1009,8 hPa 0,0 l/m 0,0 km/h S 14,8 C 19,4 C 0,0 km/h
19.06.2013 03:00 18,1 C 76 % 1009,1 hPa 0,0 l/m 0,0 km/h O-NO 13,8 C 18,1 C 0,0 km/h
19.06.2013 04:00 17,9 C 77 % 1008,6 hPa 0,0 l/m 0,0 km/h O-NO 13,8 C 17,9 C 0,0 km/h
19.06.2013 05:00 16,5 C 80 % 1008,6 hPa 0,0 l/m 0,0 km/h NO 13,0 C 16,5 C 0,0 km/h
19.06.2013 06:00 16,5 C 81 % 1008,8 hPa 0,0 l/m 0,0 km/h SO 13,2 C 16,5 C 0,0 km/h
19.06.2013 07:00 19,4 C 80 % 1008,8 hPa 0,0 l/m 0,0 km/h SO 15,9 C 19,4 C 0,0 km/h
19.06.2013 08:00 30,8 C 52 % 1009,4 hPa 0,0 l/m 0,0 km/h N 19,8 C 30,8 C 0,0 km/h
19.06.2013 09:00 33,5 C 44 % 1009,3 hPa 0,0 l/m 0,0 km/h SW 19,5 C 33,5 C 0,0 km/h
19.06.2013 10:00 35,3 C 43 % 1009,3 hPa 0,0 l/m 0,0 km/h N-NW 20,8 C 35,3 C 0,0 km/h
19.06.2013 11:00 35,9 C 42 % 1009,3 hPa 0,0 l/m 0,0 km/h SO 20,9 C 35,9 C 0,0 km/h
19.06.2013 12:00 34,6 C 44 % 1009,3 hPa 0,0 l/m 0,0 km/h N-NO 20,5 C 34,6 C 0,0 km/h
19.06.2013 13:00 35,4 C 43 % 1009,0 hPa 0,0 l/m 0,0 km/h NO 20,9 C 35,4 C 0,0 km/h
19.06.2013 14:00 36,3 C 38 % 1009,1 hPa 0,0 l/m 0,0 km/h W 19,7 C 36,3 C 0,0 km/h
19.06.2013 15:00 36,7 C 40 % 1008,8 hPa 0,0 l/m 1,3 km/h NW 20,8 C 36,7 C 0,7 km/h
19.06.2013 16:00 36,2 C 36 % 1008,8 hPa 0,0 l/m 0,0 km/h NO 18,7 C 36,2 C 0,0 km/h
19.06.2013 17:00 41,4 C 31 % 1008,5 hPa 0,0 l/m 0,0 km/h SO 20,8 C 41,4 C 0,0 km/h
19.06.2013 18:00 41,4 C 35 % 1008,1 hPa 0,0 l/m 0,0 km/h O-SO 22,8 C 41,4 C 0,0 km/h
19.06.2013 19:00 38,9 C 40 % 1007,4 hPa 0,0 l/m 0,0 km/h O-NO 22,8 C 38,9 C 0,0 km/h
19.06.2013 20:00 29,0 C 57 % 1008,2 hPa 0,0 l/m 0,0 km/h O-SO 19,6 C 29,0 C 0,0 km/h
19.06.2013 21:00 24,5 C 68 % 1008,3 hPa 0,0 l/m 0,0 km/h S 18,2 C 24,5 C 0,0 km/h
19.06.2013 22:00 21,8 C 74 % 1008,9 hPa 0,0 l/m 0,0 km/h SW 17,0 C 21,8 C 0,0 km/h
19.06.2013 23:00 21,8 C 72 % 1009,8 hPa 0,0 l/m 10,4 km/h S-SO 16,5 C 20,5 C 5,8 km/h
20.06.2013 00:00 21,5 C 72 % 1009,7 hPa 0,0 l/m 1,3 km/h S-SO 16,2 C 21,5 C 0,7 km/h
20.06.2013 01:00 19,8 C 79 % 1009,8 hPa 0,0 l/m 0,0 km/h SO 16,0 C 19,8 C 0,0 km/h
20.06.2013 02:00 18,9 C 80 % 1010,1 hPa 0,0 l/m 0,0 km/h SO 15,4 C 18,9 C 0,0 km/h
20.06.2013 03:00 18,3 C 81 % 1010,4 hPa 0,0 l/m 0,0 km/h S-SO 15,0 C 18,3 C 0,0 km/h
20.06.2013 04:00 18,1 C 81 % 1010,4 hPa 0,0 l/m 0,0 km/h S-SO 14,8 C 18,1 C 0,0 km/h
20.06.2013 05:00 17,6 C 80 % 1010,5 hPa 0,0 l/m 0,0 km/h W-SW 14,1 C 17,6 C 0,0 km/h
20.06.2013 06:00 19,5 C 81 % 1010,8 hPa 0,0 l/m 0,0 km/h S-SW 16,1 C 19,5 C 0,0 km/h
20.06.2013 07:00 21,4 C 81 % 1011,0 hPa 0,0 l/m 0,0 km/h W-NW 18,0 C 21,4 C 0,0 km/h
20.06.2013 08:00 24,2 C 70 % 1011,6 hPa 0,0 l/m 3,2 km/h W-NW 18,4 C 24,2 C 1,8 km/h
20.06.2013 09:00 21,8 C 78 % 1012,5 hPa 0,0 l/m 11,0 km/h NW 17,8 C 20,4 C 6,1 km/h
20.06.2013 10:00 23,8 C 75 % 1012,5 hPa 0,0 l/m 1,3 km/h N 19,1 C 23,8 C 0,7 km/h
20.06.2013 11:00 20,2 C 78 % 1013,6 hPa 0,0 l/m 6,5 km/h NO 16,2 C 20,2 C 3,6 km/h
20.06.2013 12:00 19,9 C 81 % 1012,7 hPa 0,0 l/m 1,3 km/h O-NO 16,5 C 19,9 C 0,7 km/h
20.06.2013 13:00 25,8 C 66 % 1012,0 hPa 0,0 l/m 3,2 km/h SO 19,0 C 25,8 C 1,8 km/h
20.06.2013 14:00 30,4 C 51 % 1010,7 hPa 0,0 l/m 0,0 km/h N-NO 19,1 C 30,4 C 0,0 km/h
20.06.2013 15:00 25,1 C 61 % 1011,1 hPa 0,0 l/m 0,0 km/h NW 17,0 C 25,1 C 0,0 km/h
20.06.2013 16:00 24,9 C 70 % 1009,9 hPa 0,0 l/m 3,9 km/h O 19,0 C 24,9 C 2,2 km/h
20.06.2013 17:00 29,6 C 52 % 1008,8 hPa 0,0 l/m 1,9 km/h O-NO 18,7 C 29,6 C 1,1 km/h
20.06.2013 18:00 27,1 C 54 % 1008,8 hPa 0,0 l/m 0,0 km/h W-NW 17,0 C 27,1 C 0,0 km/h
20.06.2013 19:00 24,1 C 63 % 1009,7 hPa 0,0 l/m 0,0 km/h W-NW 16,6 C 24,1 C 0,0 km/h
20.06.2013 20:00 15,5 C 81 % 1013,1 hPa 0,5 l/m 0,0 km/h SO 12,3 C 15,5 C 0,0 km/h
20.06.2013 21:00 15,6 C 81 % 1013,2 hPa 0,0 l/m 0,0 km/h W-SW 12,3 C 15,6 C 0,0 km/h
20.06.2013 22:00 15,5 C 80 % 1013,9 hPa 0,0 l/m 0,6 km/h S-SO 12,1 C 15,5 C 0,4 km/h
20.06.2013 23:00 15,8 C 81 % 1013,4 hPa 0,0 l/m 0,0 km/h S-SW 12,5 C 15,8 C 0,0 km/h
21.06.2013 00:00 15,9 C 82 % 1014,2 hPa 0,0 l/m 15,6 km/h S-SW 12,8 C 12,1 C 8,6 km/h
21.06.2013 01:00 15,1 C 82 % 1013,8 hPa 0,0 l/m 17,5 km/h SW 12,0 C 10,5 C 9,7 km/h
21.06.2013 02:00 15,8 C 80 % 1013,9 hPa 0,0 l/m 12,3 km/h S 12,4 C 13,1 C 6,8 km/h
21.06.2013 03:00 13,2 C 82 % 1013,5 hPa 0,0 l/m 0,0 km/h NO 10,2 C 13,2 C 0,0 km/h
21.06.2013 04:00 12,2 C 80 % 1013,1 hPa 0,0 l/m 0,0 km/h NO 8,9 C 12,2 C 0,0 km/h
21.06.2013 05:00 11,5 C 78 % 1013,2 hPa 0,0 l/m 0,6 km/h W 7,8 C 11,5 C 0,4 km/h
21.06.2013 06:00 13,4 C 80 % 1013,5 hPa 0,5 l/m 1,9 km/h W 10,0 C 13,4 C 1,1 km/h
21.06.2013 07:00 16,3 C 78 % 1013,6 hPa 0,0 l/m 12,3 km/h W-SW 12,5 C 13,7 C 6,8 km/h
21.06.2013 08:00 17,4 C 70 % 1014,1 hPa 0,0 l/m 0,0 km/h W-SW 11,9 C 17,4 C 0,0 km/h
21.06.2013 09:00 18,3 C 69 % 1014,5 hPa 0,0 l/m 3,2 km/h W 12,5 C 18,3 C 1,8 km/h
21.06.2013 10:00 22,4 C 61 % 1014,4 hPa 0,0 l/m 15,6 km/h SW 14,5 C 20,0 C 8,6 km/h
21.06.2013 11:00 21,5 C 60 % 1014,6 hPa 0,0 l/m 23,3 km/h SW 13,4 C 17,6 C 13,0 km/h
21.06.2013 12:00 23,3 C 57 % 1014,7 hPa 0,0 l/m 13,0 km/h W-SW 14,3 C 21,6 C 7,2 km/h
21.06.2013 13:00 25,4 C 52 % 1014,4 hPa 0,0 l/m 13,6 km/h W-SW 14,8 C 24,0 C 7,6 km/h
21.06.2013 14:00 24,8 C 51 % 1014,2 hPa 0,0 l/m 9,1 km/h W 14,0 C 24,1 C 5,0 km/h
21.06.2013 15:00 26,4 C 46 % 1014,3 hPa 0,0 l/m 25,3 km/h NW 13,8 C 24,0 C 14,0 km/h
21.06.2013 16:00 28,3 C 43 % 1014,4 hPa 0,0 l/m 20,7 km/h W 14,5 C 26,9 C 11,5 km/h
21.06.2013 17:00 26,1 C 47 % 1014,5 hPa 0,0 l/m 7,8 km/h W 13,9 C 25,8 C 4,3 km/h
21.06.2013 18:00 24,4 C 48 % 1014,4 hPa 0,0 l/m 3,2 km/h N 12,7 C 24,4 C 1,8 km/h
21.06.2013 19:00 26,6 C 46 % 1014,4 hPa 0,0 l/m 0,0 km/h N-NO 14,0 C 26,6 C 0,0 km/h
21.06.2013 20:00 21,1 C 59 % 1014,8 hPa 0,0 l/m 0,0 km/h NO 12,8 C 21,1 C 0,0 km/h
21.06.2013 21:00 20,2 C 62 % 1015,4 hPa 0,0 l/m 1,9 km/h SO 12,7 C 20,2 C 1,1 km/h
21.06.2013 22:00 19,1 C 67 % 1016,2 hPa 0,0 l/m 0,0 km/h NO 12,8 C 19,1 C 0,0 km/h
21.06.2013 23:00 18,7 C 67 % 1016,7 hPa 0,0 l/m 0,0 km/h N-NO 12,4 C 18,7 C 0,0 km/h
22.06.2013 00:00 17,9 C 67 % 1016,9 hPa 0,0 l/m 0,0 km/h N-NO 11,7 C 17,9 C 0,0 km/h
22.06.2013 01:00 16,1 C 73 % 1016,7 hPa 0,0 l/m 0,0 km/h NO 11,3 C 16,1 C 0,0 km/h
22.06.2013 02:00 15,3 C 75 % 1017,0 hPa 0,0 l/m 0,0 km/h S-SO 10,9 C 15,3 C 0,0 km/h
22.06.2013 03:00 14,1 C 80 % 1016,8 hPa 0,0 l/m 0,0 km/h O-SO 10,7 C 14,1 C 0,0 km/h
22.06.2013 04:00 13,8 C 82 % 1016,7 hPa 0,0 l/m 0,0 km/h O-NO 10,8 C 13,8 C 0,0 km/h
22.06.2013 05:00 12,4 C 82 % 1016,5 hPa 0,0 l/m 0,0 km/h SW 9,4 C 12,4 C 0,0 km/h
22.06.2013 06:00 13,2 C 81 % 1017,1 hPa 0,0 l/m 0,0 km/h O-NO 10,0 C 13,2 C 0,0 km/h
22.06.2013 07:00 15,9 C 80 % 1016,9 hPa 0,0 l/m 0,0 km/h S-SW 12,5 C 15,9 C 0,0 km/h
22.06.2013 08:00 22,1 C 63 % 1017,0 hPa 0,0 l/m 1,3 km/h NW 14,7 C 22,1 C 0,7 km/h
22.06.2013 09:00 25,1 C 51 % 1017,1 hPa 0,0 l/m 10,4 km/h W 14,2 C 24,2 C 5,8 km/h
22.06.2013 10:00 24,9 C 52 % 1016,8 hPa 0,0 l/m 17,5 km/h W 14,4 C 22,8 C 9,7 km/h
22.06.2013 11:00 26,6 C 49 % 1016,4 hPa 0,0 l/m 1,3 km/h S-SW 15,0 C 26,6 C 0,7 km/h
22.06.2013 12:00 24,9 C 51 % 1016,1 hPa 0,0 l/m 25,3 km/h W 14,1 C 22,0 C 14,0 km/h
22.06.2013 13:00 25,3 C 50 % 1015,7 hPa 0,0 l/m 13,0 km/h W-NW 14,1 C 24,0 C 7,2 km/h
22.06.2013 14:00 26,0 C 47 % 1015,2 hPa 0,0 l/m 20,1 km/h N-NW 13,8 C 23,9 C 11,2 km/h
22.06.2013 15:00 27,3 C 42 % 1014,8 hPa 0,0 l/m 20,1 km/h W-NW 13,2 C 25,6 C 11,2 km/h
22.06.2013 16:00 27,9 C 42 % 1014,4 hPa 0,0 l/m 14,9 km/h NW 13,8 C 26,8 C 8,3 km/h
22.06.2013 17:00 28,7 C 40 % 1014,0 hPa 0,0 l/m 28,5 km/h W-NW 13,7 C 27,0 C 15,8 km/h
22.06.2013 18:00 24,9 C 45 % 1013,5 hPa 0,0 l/m 15,6 km/h W 12,1 C 23,1 C 8,6 km/h
22.06.2013 19:00 24,9 C 45 % 1013,5 hPa 0,0 l/m 24,0 km/h W 12,1 C 22,1 C 13,3 km/h
22.06.2013 20:00 22,1 C 55 % 1013,4 hPa 0,0 l/m 1,9 km/h NW 12,6 C 22,1 C 1,1 km/h
22.06.2013 21:00 19,9 C 61 % 1013,6 hPa 0,0 l/m 14,9 km/h W-SW 12,2 C 17,2 C 8,3 km/h
22.06.2013 22:00 19,3 C 61 % 1014,2 hPa 0,0 l/m 4,5 km/h W-SW 11,6 C 19,3 C 2,5 km/h
22.06.2013 23:00 19,3 C 62 % 1014,4 hPa 0,0 l/m 16,2 km/h W-SW 11,8 C 16,1 C 9,0 km/h
23.06.2013 00:00 19,0 C 63 % 1014,4 hPa 0,0 l/m 7,1 km/h SW 11,8 C 18,7 C 4,0 km/h
23.06.2013 01:00 17,4 C 72 % 1014,0 hPa 0,0 l/m 18,1 km/h W-SW 12,3 C 13,3 C 10,1 km/h
23.06.2013 02:00 18,1 C 68 % 1013,7 hPa 0,0 l/m 15,6 km/h W 12,1 C 14,8 C 8,6 km/h
23.06.2013 03:00 17,9 C 68 % 1013,6 hPa 0,0 l/m 24,0 km/h W-SW 11,9 C 12,7 C 13,3 km/h
23.06.2013 04:00 17,0 C 73 % 1013,7 hPa 0,0 l/m 25,3 km/h NW 12,1 C 11,3 C 14,0 km/h
23.06.2013 05:00 15,2 C 81 % 1014,0 hPa 0,0 l/m 9,7 km/h W-SW 12,0 C 13,5 C 5,4 km/h
23.06.2013 06:00 15,8 C 80 % 1014,1 hPa 0,0 l/m 22,0 km/h W-SW 12,4 C 10,3 C 12,2 km/h
23.06.2013 07:00 16,4 C 78 % 1014,0 hPa 0,0 l/m 9,1 km/h W-SW 12,6 C 15,1 C 5,0 km/h
23.06.2013 08:00 17,3 C 74 % 1014,3 hPa 0,0 l/m 3,9 km/h W 12,6 C 17,3 C 2,2 km/h
23.06.2013 09:00 21,9 C 64 % 1014,6 hPa 0,0 l/m 11,7 km/h SW 14,8 C 20,3 C 6,5 km/h
23.06.2013 10:00 19,6 C 61 % 1014,9 hPa 0,0 l/m 19,4 km/h W 11,9 C 15,8 C 10,8 km/h
23.06.2013 11:00 17,6 C 62 % 1015,6 hPa 0,0 l/m 3,9 km/h W 10,2 C 17,6 C 2,2 km/h
23.06.2013 12:00 18,4 C 59 % 1015,6 hPa 0,0 l/m 18,1 km/h S-SW 10,2 C 14,5 C 10,1 km/h
23.06.2013 13:00 18,9 C 60 % 1015,6 hPa 0,0 l/m 19,4 km/h S-SW 11,0 C 14,9 C 10,8 km/h
23.06.2013 14:00 20,8 C 55 % 1015,5 hPa 0,0 l/m 9,1 km/h W-SW 11,4 C 19,8 C 5,0 km/h
23.06.2013 15:00 21,5 C 51 % 1015,9 hPa 0,0 l/m 23,3 km/h W-NW 10,9 C 17,6 C 13,0 km/h
23.06.2013 16:00 22,0 C 44 % 1015,3 hPa 0,0 l/m 13,6 km/h NW 9,2 C 20,0 C 7,6 km/h
23.06.2013 17:00 24,9 C 39 % 1015,3 hPa 0,0 l/m 21,4 km/h W-NW 10,0 C 22,4 C 11,9 km/h
23.06.2013 18:00 19,8 C 47 % 1015,0 hPa 0,0 l/m 11,0 km/h N-NW 8,2 C 18,1 C 6,1 km/h
23.06.2013 19:00 19,3 C 48 % 1015,3 hPa 0,0 l/m 14,9 km/h W-NW 8,0 C 16,4 C 8,3 km/h
23.06.2013 20:00 17,4 C 49 % 1015,5 hPa 0,0 l/m 1,9 km/h W 6,6 C 17,4 C 1,1 km/h
23.06.2013 21:00 16,1 C 54 % 1015,8 hPa 0,0 l/m 5,2 km/h W 6,8 C 16,1 C 2,9 km/h
23.06.2013 22:00 15,8 C 60 % 1016,8 hPa 0,0 l/m 2,6 km/h N-NW 8,1 C 15,8 C 1,4 km/h
23.06.2013 23:00 14,1 C 64 % 1016,8 hPa 0,0 l/m 0,0 km/h N-NW 7,4 C 14,1 C 0,0 km/h
Min-Datum _ 21.06.13 17.06.13 19.06.13 - 17.06.13 - 23.06.13 23.06.13 17.06.13
_ Min-Zeit 05:19 18:19 19:19 - 00:19 - 20:19 06:19 00:19
Minimum _ 11,5 C 27 % 1007,4 hPa - 0,0 km/h - 6,6 C 10,3 C 0,0 km/h
Max-Datum _ 17.06.13 17.06.13 22.06.13 20.06.13 22.06.13 - 19.06.13 17.06.13 22.06.13
_ Max-Zeit 18:19 01:19 06:19 20:19 17:19 - 19:19 18:19 17:19
Maximum _ 44,2 C 82 % 1017,1 hPa 0,5 l/m 28,5 km/h
W-NW
- 22,8 C 44,2 C 15,8 km/h
W-NW
Durchschnitt _ 23,6 C 62 % 1012,4 hPa #1,0 l/m 5,5 km/h W 15,2 C 22,9 C 3,0 km/h
www.sexauwetter.de